sensor_id;sensor_type;location;lat;lon;timestamp;pressure;altitude;pressure_sealevel;temperature;humidity
32759;BME280;19125;52.360;9.974;2024-01-30T00:01:15;87945.81;;;-145.17;61.10
32759;BME280;19125;52.360;9.974;2024-01-30T00:03:40;87965.66;;;-145.17;61.39
32759;BME280;19125;52.360;9.974;2024-01-30T00:06:08;87973.59;;;-145.17;61.38
32759;BME280;19125;52.360;9.974;2024-01-30T00:08:35;87985.50;;;-145.17;61.64
32759;BME280;19125;52.360;9.974;2024-01-30T00:11:00;87991.47;;;-145.17;61.49
32759;BME280;19125;52.360;9.974;2024-01-30T00:13:26;88064.91;;;-145.17;61.48
32759;BME280;19125;52.360;9.974;2024-01-30T00:15:52;88011.31;;;-145.17;61.73
32759;BME280;19125;52.360;9.974;2024-01-30T00:18:17;88029.19;;;-145.17;61.51
32759;BME280;19125;52.360;9.974;2024-01-30T00:20:44;88104.63;;;-145.17;61.69
32759;BME280;19125;52.360;9.974;2024-01-30T00:23:09;88092.72;;;-145.17;61.76
32759;BME280;19125;52.360;9.974;2024-01-30T00:25:34;88132.41;;;-145.17;61.83
32759;BME280;19125;52.360;9.974;2024-01-30T00:28:00;88130.44;;;-145.17;62.43
32759;BME280;19125;52.360;9.974;2024-01-30T00:30:25;88160.22;;;-145.17;62.13
32759;BME280;19125;52.360;9.974;2024-01-30T00:32:51;88144.34;;;-145.17;62.51
32759;BME280;19125;52.360;9.974;2024-01-30T00:35:16;88188.00;;;-145.17;62.43
32759;BME280;19125;52.360;9.974;2024-01-30T00:37:41;88156.25;;;-145.17;62.78
32759;BME280;19125;52.360;9.974;2024-01-30T00:40:07;88160.22;;;-145.17;62.77
32759;BME280;19125;52.360;9.974;2024-01-30T00:42:33;88207.88;;;-145.17;63.06
32759;BME280;19125;52.360;9.974;2024-01-30T00:44:58;88225.72;;;-145.17;63.15
32759;BME280;19125;52.360;9.974;2024-01-30T00:47:23;88207.88;;;-145.17;63.16
32759;BME280;19125;52.360;9.974;2024-01-30T00:49:49;88283.31;;;-145.17;63.28
32759;BME280;19125;52.360;9.974;2024-01-30T00:52:16;88259.47;;;-145.17;62.91
32759;BME280;19125;52.360;9.974;2024-01-30T00:54:41;88209.84;;;-145.17;62.98
32759;BME280;19125;52.360;9.974;2024-01-30T00:57:07;88251.53;;;-145.17;62.80
32759;BME280;19125;52.360;9.974;2024-01-30T00:59:32;88283.31;;;-145.17;63.21
32759;BME280;19125;52.360;9.974;2024-01-30T01:01:58;88291.25;;;-145.17;63.19
32759;BME280;19125;52.360;9.974;2024-01-30T01:04:23;88271.41;;;-145.17;63.50
32759;BME280;19125;52.360;9.974;2024-01-30T01:06:49;88317.06;;;-145.17;63.13
32759;BME280;19125;52.360;9.974;2024-01-30T01:09:14;88299.19;;;-145.17;63.76
32759;BME280;19125;52.360;9.974;2024-01-30T01:11:40;88336.91;;;-145.17;63.23
32759;BME280;19125;52.360;9.974;2024-01-30T01:14:05;88307.13;;;-145.17;63.92
32759;BME280;19125;52.360;9.974;2024-01-30T01:16:31;88356.78;;;-145.17;63.65
32759;BME280;19125;52.360;9.974;2024-01-30T01:18:56;88350.81;;;-145.17;63.52
32759;BME280;19125;52.360;9.974;2024-01-30T01:21:22;88342.88;;;-145.17;64.01
32759;BME280;19125;52.360;9.974;2024-01-30T01:23:48;88358.75;;;-145.17;63.90
32759;BME280;19125;52.360;9.974;2024-01-30T01:26:13;88344.84;;;-145.17;63.85
32759;BME280;19125;52.360;9.974;2024-01-30T01:28:42;88342.88;;;-145.17;63.86
32759;BME280;19125;52.360;9.974;2024-01-30T01:31:07;88352.81;;;-145.17;64.05
32759;BME280;19125;52.360;9.974;2024-01-30T01:33:33;88370.66;;;-145.17;64.47
32759;BME280;19125;52.360;9.974;2024-01-30T01:35:59;88362.72;;;-145.17;64.04
32759;BME280;19125;52.360;9.974;2024-01-30T01:38:24;88394.50;;;-145.17;64.51
32759;BME280;19125;52.360;9.974;2024-01-30T01:40:50;88422.28;;;-145.17;64.29
32759;BME280;19125;52.360;9.974;2024-01-30T01:43:16;88450.09;;;-145.17;64.81
32759;BME280;19125;52.360;9.974;2024-01-30T01:45:41;88384.56;;;-145.17;64.82
32759;BME280;19125;52.360;9.974;2024-01-30T01:48:07;88398.47;;;-145.17;64.95
32759;BME280;19125;52.360;9.974;2024-01-30T01:50:34;88408.41;;;-145.17;64.95
32759;BME280;19125;52.360;9.974;2024-01-30T01:52:59;88428.25;;;-145.17;64.67
32759;BME280;19125;52.360;9.974;2024-01-30T01:55:25;88394.50;;;-145.17;64.59
32759;BME280;19125;52.360;9.974;2024-01-30T01:57:53;88402.44;;;-145.17;64.71
32759;BME280;19125;52.360;9.974;2024-01-30T02:00:19;88420.31;;;-145.17;65.15
32759;BME280;19125;52.360;9.974;2024-01-30T02:02:46;88402.44;;;-145.17;64.97
32759;BME280;19125;52.360;9.974;2024-01-30T02:05:12;88390.53;;;-145.17;64.98
32759;BME280;19125;52.360;9.974;2024-01-30T02:07:37;88374.63;;;-145.17;65.14
32759;BME280;19125;52.360;9.974;2024-01-30T02:10:03;88378.63;;;-145.17;65.06
32759;BME280;19125;52.360;9.974;2024-01-30T02:12:29;88398.47;;;-145.17;65.33
32759;BME280;19125;52.360;9.974;2024-01-30T02:14:54;88338.91;;;-145.17;65.09
32759;BME280;19125;52.360;9.974;2024-01-30T02:17:20;88442.16;;;-145.17;64.96
32759;BME280;19125;52.360;9.974;2024-01-30T02:19:46;88366.69;;;-145.17;64.99
32759;BME280;19125;52.360;9.974;2024-01-30T02:22:12;88469.94;;;-145.17;65.02
32759;BME280;19125;52.360;9.974;2024-01-30T02:24:38;88344.84;;;-145.17;64.83
32759;BME280;19125;52.360;9.974;2024-01-30T02:27:03;88396.47;;;-145.17;65.12
32759;BME280;19125;52.360;9.974;2024-01-30T02:29:28;88406.41;;;-145.17;64.86
32759;BME280;19125;52.360;9.974;2024-01-30T02:31:54;88402.44;;;-145.17;65.14
32759;BME280;19125;52.360;9.974;2024-01-30T02:34:19;88378.63;;;-145.17;65.04
32759;BME280;19125;52.360;9.974;2024-01-30T02:36:45;88376.63;;;-145.17;65.46
32759;BME280;19125;52.360;9.974;2024-01-30T02:39:11;88368.69;;;-145.17;65.37
32759;BME280;19125;52.360;9.974;2024-01-30T02:41:36;88358.75;;;-145.17;65.25
32759;BME280;19125;52.360;9.974;2024-01-30T02:44:03;88350.81;;;-145.17;65.29
32759;BME280;19125;52.360;9.974;2024-01-30T02:46:28;88410.38;;;-145.17;65.23
32759;BME280;19125;52.360;9.974;2024-01-30T02:48:54;88382.59;;;-145.17;65.53
32759;BME280;19125;52.360;9.974;2024-01-30T02:51:19;88364.72;;;-145.17;65.40
32759;BME280;19125;52.360;9.974;2024-01-30T02:53:44;88330.97;;;-145.17;65.81
32759;BME280;19125;52.360;9.974;2024-01-30T02:56:10;88340.88;;;-145.17;65.76
32759;BME280;19125;52.360;9.974;2024-01-30T02:58:36;88287.28;;;-145.17;65.81
32759;BME280;19125;52.360;9.974;2024-01-30T03:01:02;88334.94;;;-145.17;65.98
32759;BME280;19125;52.360;9.974;2024-01-30T03:03:27;88273.38;;;-145.17;65.92
32759;BME280;19125;52.360;9.974;2024-01-30T03:06:13;88249.56;;;-145.17;65.88
32759;BME280;19125;52.360;9.974;2024-01-30T03:08:40;88253.53;;;-145.17;65.73
32759;BME280;19125;52.360;9.974;2024-01-30T03:11:08;88235.66;;;-145.17;65.75
32759;BME280;19125;52.360;9.974;2024-01-30T03:13:34;88253.53;;;-145.17;65.57
32759;BME280;19125;52.360;9.974;2024-01-30T03:15:59;88259.47;;;-145.17;65.70
32759;BME280;19125;52.360;9.974;2024-01-30T03:18:24;88223.75;;;-145.17;65.89
32759;BME280;19125;52.360;9.974;2024-01-30T03:20:49;88301.19;;;-145.17;65.57
32759;BME280;19125;52.360;9.974;2024-01-30T03:23:15;88237.66;;;-145.17;65.37
32759;BME280;19125;52.360;9.974;2024-01-30T03:25:40;88275.38;;;-145.17;65.13
32759;BME280;19125;52.360;9.974;2024-01-30T03:28:06;88315.06;;;-145.17;65.11
32759;BME280;19125;52.360;9.974;2024-01-30T03:30:31;88303.16;;;-145.17;65.19
32759;BME280;19125;52.360;9.974;2024-01-30T03:32:57;88307.13;;;-145.17;65.20
32759;BME280;19125;52.360;9.974;2024-01-30T03:35:22;88299.19;;;-145.17;64.98
32759;BME280;19125;52.360;9.974;2024-01-30T03:37:48;88313.09;;;-145.17;64.92
32759;BME280;19125;52.360;9.974;2024-01-30T03:40:13;88281.31;;;-145.17;64.89
32759;BME280;19125;52.360;9.974;2024-01-30T03:42:38;88356.78;;;-145.17;65.02
32759;BME280;19125;52.360;9.974;2024-01-30T03:45:04;88321.03;;;-145.17;64.72
32759;BME280;19125;52.360;9.974;2024-01-30T03:47:30;88323.03;;;-145.17;64.87
32759;BME280;19125;52.360;9.974;2024-01-30T03:49:55;88313.09;;;-145.17;65.04
32759;BME280;19125;52.360;9.974;2024-01-30T03:52:20;88317.06;;;-145.17;65.03
32759;BME280;19125;52.360;9.974;2024-01-30T03:54:46;88325.00;;;-145.17;65.07
32759;BME280;19125;52.360;9.974;2024-01-30T03:57:11;88315.06;;;-145.17;64.91
32759;BME280;19125;52.360;9.974;2024-01-30T03:59:37;88330.97;;;-145.17;65.21
32759;BME280;19125;52.360;9.974;2024-01-30T04:02:03;88394.50;;;-145.17;64.85
32759;BME280;19125;52.360;9.974;2024-01-30T04:04:29;88362.72;;;-145.17;65.29
32759;BME280;19125;52.360;9.974;2024-01-30T04:06:54;88354.78;;;-145.17;64.93
32759;BME280;19125;52.360;9.974;2024-01-30T04:09:20;88336.91;;;-145.17;65.19
32759;BME280;19125;52.360;9.974;2024-01-30T04:11:45;88350.81;;;-145.17;65.45
32759;BME280;19125;52.360;9.974;2024-01-30T04:14:10;88325.00;;;-145.17;65.12
32759;BME280;19125;52.360;9.974;2024-01-30T04:16:36;88340.88;;;-145.17;65.11
32759;BME280;19125;52.360;9.974;2024-01-30T04:19:01;88344.84;;;-145.17;65.30
32759;BME280;19125;52.360;9.974;2024-01-30T04:21:26;88338.91;;;-145.17;65.14
32759;BME280;19125;52.360;9.974;2024-01-30T04:23:52;88360.75;;;-145.17;65.19
32759;BME280;19125;52.360;9.974;2024-01-30T04:26:18;88344.84;;;-145.17;65.41
32759;BME280;19125;52.360;9.974;2024-01-30T04:28:46;88346.84;;;-145.17;65.66
32759;BME280;19125;52.360;9.974;2024-01-30T04:31:12;88370.66;;;-145.17;65.21
32759;BME280;19125;52.360;9.974;2024-01-30T04:33:37;88362.72;;;-145.17;65.15
32759;BME280;19125;52.360;9.974;2024-01-30T04:36:03;88366.69;;;-145.17;65.53
32759;BME280;19125;52.360;9.974;2024-01-30T04:38:28;88358.75;;;-145.17;65.33
32759;BME280;19125;52.360;9.974;2024-01-30T04:40:54;88366.69;;;-145.17;65.44
32759;BME280;19125;52.360;9.974;2024-01-30T04:43:19;88382.59;;;-145.17;65.43
32759;BME280;19125;52.360;9.974;2024-01-30T04:45:45;88396.47;;;-145.17;65.66
32759;BME280;19125;52.360;9.974;2024-01-30T04:48:10;88382.59;;;-145.17;65.76
32759;BME280;19125;52.360;9.974;2024-01-30T04:50:36;88346.84;;;-145.17;65.72
32759;BME280;19125;52.360;9.974;2024-01-30T04:53:01;88382.59;;;-145.17;65.59
32759;BME280;19125;52.360;9.974;2024-01-30T04:55:27;88378.63;;;-145.17;65.71
32759;BME280;19125;52.360;9.974;2024-01-30T04:57:52;88376.63;;;-145.17;66.07
32759;BME280;19125;52.360;9.974;2024-01-30T05:00:17;88325.00;;;-145.17;65.80
32759;BME280;19125;52.360;9.974;2024-01-30T05:02:43;88344.84;;;-145.17;66.15
32759;BME280;19125;52.360;9.974;2024-01-30T05:05:08;88309.13;;;-145.17;66.23
32759;BME280;19125;52.360;9.974;2024-01-30T05:07:34;88297.22;;;-145.17;66.43
32759;BME280;19125;52.360;9.974;2024-01-30T05:09:59;88277.34;;;-145.17;66.00
32759;BME280;19125;52.360;9.974;2024-01-30T05:12:25;88269.41;;;-145.17;66.28
32759;BME280;19125;52.360;9.974;2024-01-30T05:14:50;88229.72;;;-145.17;66.16
32759;BME280;19125;52.360;9.974;2024-01-30T05:17:15;88205.88;;;-145.17;66.51
32759;BME280;19125;52.360;9.974;2024-01-30T05:19:42;88221.75;;;-145.17;66.31
32759;BME280;19125;52.360;9.974;2024-01-30T05:22:07;88201.91;;;-145.17;66.45
32759;BME280;19125;52.360;9.974;2024-01-30T05:24:33;88170.13;;;-145.17;66.23
32759;BME280;19125;52.360;9.974;2024-01-30T05:26:58;88160.22;;;-145.17;66.55
32759;BME280;19125;52.360;9.974;2024-01-30T05:29:24;88140.38;;;-145.17;66.39
32759;BME280;19125;52.360;9.974;2024-01-30T05:31:49;88168.16;;;-145.17;66.69
32759;BME280;19125;52.360;9.974;2024-01-30T05:34:15;88122.50;;;-145.17;66.54
32759;BME280;19125;52.360;9.974;2024-01-30T05:36:40;88114.56;;;-145.17;66.54
32759;BME280;19125;52.360;9.974;2024-01-30T05:39:06;88110.59;;;-145.17;66.75
32759;BME280;19125;52.360;9.974;2024-01-30T05:41:31;88148.31;;;-145.17;66.35
32759;BME280;19125;52.360;9.974;2024-01-30T05:43:56;88100.66;;;-145.17;66.47
32759;BME280;19125;52.360;9.974;2024-01-30T05:46:22;88023.22;;;-145.17;66.78
32759;BME280;19125;52.360;9.974;2024-01-30T05:48:47;87997.41;;;-145.17;66.72
32759;BME280;19125;52.360;9.974;2024-01-30T05:51:12;87914.03;;;-145.17;66.74
32759;BME280;19125;52.360;9.974;2024-01-30T05:53:38;87941.84;;;-145.17;66.88
32759;BME280;19125;52.360;9.974;2024-01-30T05:56:04;87989.47;;;-145.17;66.64
32759;BME280;19125;52.360;9.974;2024-01-30T05:58:30;87965.66;;;-145.17;66.90
32759;BME280;19125;52.360;9.974;2024-01-30T06:00:56;88045.06;;;-145.17;66.73
32759;BME280;19125;52.360;9.974;2024-01-30T06:03:22;88013.31;;;-145.17;66.68
32759;BME280;19125;52.360;9.974;2024-01-30T06:05:47;88019.25;;;-145.17;66.70
32759;BME280;19125;52.360;9.974;2024-01-30T06:08:12;88045.06;;;-145.17;66.45
32759;BME280;19125;52.360;9.974;2024-01-30T06:10:38;88076.84;;;-145.17;66.80
32759;BME280;19125;52.360;9.974;2024-01-30T06:13:04;88084.78;;;-145.17;66.72
32759;BME280;19125;52.360;9.974;2024-01-30T06:15:30;88114.56;;;-145.17;66.58
32759;BME280;19125;52.360;9.974;2024-01-30T06:17:55;88104.63;;;-145.17;66.71
32759;BME280;19125;52.360;9.974;2024-01-30T06:20:21;88150.28;;;-145.17;66.71
32759;BME280;19125;52.360;9.974;2024-01-30T06:22:46;88180.06;;;-145.17;66.74
32759;BME280;19125;52.360;9.974;2024-01-30T06:25:11;88164.19;;;-145.17;66.69
32759;BME280;19125;52.360;9.974;2024-01-30T06:27:37;88090.72;;;-145.17;66.73
32759;BME280;19125;52.360;9.974;2024-01-30T06:30:03;88060.94;;;-145.17;66.79
32759;BME280;19125;52.360;9.974;2024-01-30T06:32:29;87866.41;;;-145.17;67.11
32759;BME280;19125;52.360;9.974;2024-01-30T06:34:59;87425.69;;;-145.17;67.70
32759;BME280;19125;52.360;9.974;2024-01-30T06:37:24;87312.56;;;-145.17;67.34
32759;BME280;19125;52.360;9.974;2024-01-30T06:39:50;87501.13;;;-145.17;67.08
32759;BME280;19125;52.360;9.974;2024-01-30T06:42:15;87588.47;;;-145.17;67.15
32759;BME280;19125;52.360;9.974;2024-01-30T06:44:41;87634.13;;;-145.17;67.01
32759;BME280;19125;52.360;9.974;2024-01-30T06:47:06;87663.91;;;-145.17;66.94
32759;BME280;19125;52.360;9.974;2024-01-30T06:49:31;87653.97;;;-145.17;67.35
32759;BME280;19125;52.360;9.974;2024-01-30T06:51:57;87628.19;;;-145.17;67.27
32759;BME280;19125;52.360;9.974;2024-01-30T06:54:22;87669.88;;;-145.17;67.31
32759;BME280;19125;52.360;9.974;2024-01-30T06:56:47;87608.31;;;-145.17;67.36
32759;BME280;19125;52.360;9.974;2024-01-30T06:59:13;87584.50;;;-145.17;67.20
32759;BME280;19125;52.360;9.974;2024-01-30T07:01:39;87608.31;;;-145.17;67.06
32759;BME280;19125;52.360;9.974;2024-01-30T07:04:05;87600.38;;;-145.17;67.18
32759;BME280;19125;52.360;9.974;2024-01-30T07:06:30;87568.63;;;-145.17;66.95
32759;BME280;19125;52.360;9.974;2024-01-30T07:08:56;87493.19;;;-145.17;67.10
32759;BME280;19125;52.360;9.974;2024-01-30T07:11:22;87481.28;;;-145.17;67.13
32759;BME280;19125;52.360;9.974;2024-01-30T07:13:50;87509.06;;;-145.17;67.37
32759;BME280;19125;52.360;9.974;2024-01-30T07:16:16;87530.91;;;-145.17;67.36
32759;BME280;19125;52.360;9.974;2024-01-30T07:18:41;87386.00;;;-145.17;67.29
32759;BME280;19125;52.360;9.974;2024-01-30T07:21:06;87395.94;;;-145.17;67.13
32759;BME280;19125;52.360;9.974;2024-01-30T07:23:32;87477.31;;;-145.17;67.31
32759;BME280;19125;52.360;9.974;2024-01-30T07:25:59;87511.06;;;-145.17;66.82
32759;BME280;19125;52.360;9.974;2024-01-30T07:28:24;87628.19;;;-145.17;67.06
32759;BME280;19125;52.360;9.974;2024-01-30T07:30:50;87524.94;;;-145.17;67.25
32759;BME280;19125;52.360;9.974;2024-01-30T07:33:15;87399.91;;;-145.17;66.90
32759;BME280;19125;52.360;9.974;2024-01-30T07:35:41;87374.09;;;-145.17;67.22
32759;BME280;19125;52.360;9.974;2024-01-30T07:38:06;87346.31;;;-145.17;67.42
32759;BME280;19125;52.360;9.974;2024-01-30T07:40:32;87409.81;;;-145.17;67.15
32759;BME280;19125;52.360;9.974;2024-01-30T07:42:58;87459.44;;;-145.17;66.93
32759;BME280;19125;52.360;9.974;2024-01-30T07:45:24;87552.75;;;-145.17;66.54
32759;BME280;19125;52.360;9.974;2024-01-30T07:47:51;87624.22;;;-145.17;66.62
32759;BME280;19125;52.360;9.974;2024-01-30T07:50:17;87777.06;;;-145.17;66.37
32759;BME280;19125;52.360;9.974;2024-01-30T07:52:43;87874.34;;;-145.17;66.42
32759;BME280;19125;52.360;9.974;2024-01-30T07:55:09;87921.97;;;-145.17;65.99
32759;BME280;19125;52.360;9.974;2024-01-30T07:57:34;87973.59;;;-145.17;66.06
32759;BME280;19125;52.360;9.974;2024-01-30T08:00:03;88033.16;;;-145.17;65.78
32759;BME280;19125;52.360;9.974;2024-01-30T08:02:28;88132.41;;;-145.17;65.88
32759;BME280;19125;52.360;9.974;2024-01-30T08:04:54;88090.72;;;-145.17;65.66
32759;BME280;19125;52.360;9.974;2024-01-30T08:07:19;88172.13;;;-145.17;65.52
32759;BME280;19125;52.360;9.974;2024-01-30T08:09:46;88146.31;;;-145.17;65.16
32759;BME280;19125;52.360;9.974;2024-01-30T08:12:11;88148.31;;;-145.17;65.15
32759;BME280;19125;52.360;9.974;2024-01-30T08:14:37;88166.16;;;-145.17;64.95
32759;BME280;19125;52.360;9.974;2024-01-30T08:17:03;88211.84;;;-145.17;64.87
32759;BME280;19125;52.360;9.974;2024-01-30T08:19:29;88188.00;;;-145.17;64.44
32759;BME280;19125;52.360;9.974;2024-01-30T08:21:54;88172.13;;;-145.17;64.13
32759;BME280;19125;52.360;9.974;2024-01-30T08:24:20;88180.06;;;-145.17;64.11
32759;BME280;19125;52.360;9.974;2024-01-30T08:26:46;88138.38;;;-145.17;63.68
32759;BME280;19125;52.360;9.974;2024-01-30T08:29:11;88134.41;;;-145.17;63.68
32759;BME280;19125;52.360;9.974;2024-01-30T08:31:37;88106.59;;;-145.17;63.19
32759;BME280;19125;52.360;9.974;2024-01-30T08:34:02;88078.81;;;-145.17;62.98
32759;BME280;19125;52.360;9.974;2024-01-30T08:36:27;87991.47;;;-145.17;62.87
32759;BME280;19125;52.360;9.974;2024-01-30T08:38:53;88035.13;;;-145.17;62.56
32759;BME280;19125;52.360;9.974;2024-01-30T08:41:18;87983.53;;;-145.17;62.10
32759;BME280;19125;52.360;9.974;2024-01-30T08:43:43;87937.88;;;-145.17;61.63
32759;BME280;19125;52.360;9.974;2024-01-30T08:46:10;87900.16;;;-145.17;61.33
32759;BME280;19125;52.360;9.974;2024-01-30T08:48:36;87850.50;;;-145.17;61.11
32759;BME280;19125;52.360;9.974;2024-01-30T08:51:01;87808.81;;;-145.17;61.11
32759;BME280;19125;52.360;9.974;2024-01-30T08:53:26;87802.88;;;-145.17;60.52
32759;BME280;19125;52.360;9.974;2024-01-30T08:55:52;87775.06;;;-145.17;60.41
32759;BME280;19125;52.360;9.974;2024-01-30T08:58:17;87731.41;;;-145.17;60.27
32759;BME280;19125;52.360;9.974;2024-01-30T09:00:44;87719.50;;;-145.17;60.14
32759;BME280;19125;52.360;9.974;2024-01-30T09:03:10;87667.88;;;-145.17;59.85
32759;BME280;19125;52.360;9.974;2024-01-30T09:05:35;87580.53;;;-145.17;59.53
32759;BME280;19125;52.360;9.974;2024-01-30T09:08:00;87580.53;;;-145.17;59.34
32759;BME280;19125;52.360;9.974;2024-01-30T09:10:26;87550.75;;;-145.17;59.24
32759;BME280;19125;52.360;9.974;2024-01-30T09:12:51;87532.91;;;-145.17;58.91
32759;BME280;19125;52.360;9.974;2024-01-30T09:15:18;87485.25;;;-145.17;58.54
32759;BME280;19125;52.360;9.974;2024-01-30T09:17:44;87445.56;;;-145.17;58.33
32759;BME280;19125;52.360;9.974;2024-01-30T09:20:09;87417.75;;;-145.17;58.25
32759;BME280;19125;52.360;9.974;2024-01-30T09:22:35;87354.25;;;-145.17;57.48
32759;BME280;19125;52.360;9.974;2024-01-30T09:25:00;87324.47;;;-145.17;57.31
32759;BME280;19125;52.360;9.974;2024-01-30T09:27:26;87328.44;;;-145.17;56.89
32759;BME280;19125;52.360;9.974;2024-01-30T09:29:51;87304.63;;;-145.17;57.04
32759;BME280;19125;52.360;9.974;2024-01-30T09:32:16;87239.13;;;-145.17;56.73
32759;BME280;19125;52.360;9.974;2024-01-30T09:34:43;87298.66;;;-145.17;56.66
32759;BME280;19125;52.360;9.974;2024-01-30T09:37:08;87227.22;;;-145.17;56.68
32759;BME280;19125;52.360;9.974;2024-01-30T09:39:33;87211.31;;;-145.17;56.33
32759;BME280;19125;52.360;9.974;2024-01-30T09:42:12;87171.63;;;-145.17;56.09
32759;BME280;19125;52.360;9.974;2024-01-30T09:44:40;87167.66;;;-145.17;55.96
32759;BME280;19125;52.360;9.974;2024-01-30T09:47:08;87151.78;;;-145.17;55.64
32759;BME280;19125;52.360;9.974;2024-01-30T09:49:34;87137.88;;;-145.17;55.83
32759;BME280;19125;52.360;9.974;2024-01-30T09:52:00;87120.03;;;-145.17;55.73
32759;BME280;19125;52.360;9.974;2024-01-30T09:54:30;87141.84;;;-145.17;55.48
32759;BME280;19125;52.360;9.974;2024-01-30T09:56:57;87124.00;;;-145.17;55.04
32759;BME280;19125;52.360;9.974;2024-01-30T09:59:23;87112.09;;;-145.17;55.26
32759;BME280;19125;52.360;9.974;2024-01-30T10:01:50;87072.38;;;-145.17;55.03
32759;BME280;19125;52.360;9.974;2024-01-30T10:04:16;87072.38;;;-145.17;54.91
32759;BME280;19125;52.360;9.974;2024-01-30T10:06:42;87076.34;;;-145.17;54.52
32759;BME280;19125;52.360;9.974;2024-01-30T10:09:07;87024.75;;;-145.17;54.93
32759;BME280;19125;52.360;9.974;2024-01-30T10:11:34;87000.94;;;-145.17;54.33
32759;BME280;19125;52.360;9.974;2024-01-30T10:14:00;87020.78;;;-145.17;54.36
32759;BME280;19125;52.360;9.974;2024-01-30T10:16:25;87006.88;;;-145.17;54.31
32759;BME280;19125;52.360;9.974;2024-01-30T10:18:51;86971.16;;;-145.17;53.72
32759;BME280;19125;52.360;9.974;2024-01-30T10:21:16;86977.13;;;-145.17;53.86
32759;BME280;19125;52.360;9.974;2024-01-30T10:23:43;86965.22;;;-145.17;53.85
32759;BME280;19125;52.360;9.974;2024-01-30T10:26:09;86931.47;;;-145.17;53.45
32759;BME280;19125;52.360;9.974;2024-01-30T10:28:35;86939.41;;;-145.17;53.38
32759;BME280;19125;52.360;9.974;2024-01-30T10:31:01;86899.72;;;-145.17;53.19
32759;BME280;19125;52.360;9.974;2024-01-30T10:33:28;86881.84;;;-145.17;52.98
32759;BME280;19125;52.360;9.974;2024-01-30T10:36:03;86919.56;;;-145.17;52.81
32759;BME280;19125;52.360;9.974;2024-01-30T10:38:29;86893.75;;;-145.17;52.96
32759;BME280;19125;52.360;9.974;2024-01-30T10:41:00;86860.03;;;-145.17;52.46
32759;BME280;19125;52.360;9.974;2024-01-30T10:43:31;86887.81;;;-145.17;52.44
32759;BME280;19125;52.360;9.974;2024-01-30T10:46:07;86860.03;;;-145.17;52.42
32759;BME280;19125;52.360;9.974;2024-01-30T10:48:36;86850.09;;;-145.17;51.84
32759;BME280;19125;52.360;9.974;2024-01-30T10:51:08;86909.63;;;-145.17;51.74
32759;BME280;19125;52.360;9.974;2024-01-30T10:53:34;86865.97;;;-145.17;51.74
32759;BME280;19125;52.360;9.974;2024-01-30T10:56:01;86808.41;;;-145.17;51.57
32759;BME280;19125;52.360;9.974;2024-01-30T10:58:27;86800.47;;;-145.17;51.13
32759;BME280;19125;52.360;9.974;2024-01-30T11:00:54;86729.03;;;-145.17;50.84
32759;BME280;19125;52.360;9.974;2024-01-30T11:03:20;86736.97;;;-145.17;50.58
32759;BME280;19125;52.360;9.974;2024-01-30T11:05:50;86784.59;;;-145.17;50.47
32759;BME280;19125;52.360;9.974;2024-01-30T11:08:23;86734.97;;;-145.17;50.39
32759;BME280;19125;52.360;9.974;2024-01-30T11:10:49;86709.19;;;-145.17;50.48
32759;BME280;19125;52.360;9.974;2024-01-30T11:13:15;86707.19;;;-145.17;50.41
32759;BME280;19125;52.360;9.974;2024-01-30T11:15:41;86719.09;;;-145.17;49.89
32759;BME280;19125;52.360;9.974;2024-01-30T11:18:06;86736.97;;;-145.17;50.09
32759;BME280;19125;52.360;9.974;2024-01-30T11:20:32;86699.25;;;-145.17;50.10
32759;BME280;19125;52.360;9.974;2024-01-30T11:22:58;86693.31;;;-145.17;49.91
32759;BME280;19125;52.360;9.974;2024-01-30T11:25:25;86651.63;;;-145.17;49.81
32759;BME280;19125;52.360;9.974;2024-01-30T11:27:52;86677.44;;;-145.17;49.82
32759;BME280;19125;52.360;9.974;2024-01-30T11:30:25;86667.50;;;-145.17;49.49
32759;BME280;19125;52.360;9.974;2024-01-30T11:35:35;86679.41;;;-145.17;49.70
32759;BME280;19125;52.360;9.974;2024-01-30T11:38:01;86723.06;;;-145.17;49.36
32759;BME280;19125;52.360;9.974;2024-01-30T11:40:28;86639.72;;;-145.17;49.50
32759;BME280;19125;52.360;9.974;2024-01-30T11:42:58;86711.16;;;-145.17;49.60
32759;BME280;19125;52.360;9.974;2024-01-30T11:45:24;86663.53;;;-145.17;49.60
32759;BME280;19125;52.360;9.974;2024-01-30T11:47:50;86661.56;;;-145.17;49.38
32759;BME280;19125;52.360;9.974;2024-01-30T11:50:16;86657.59;;;-145.17;49.17
32759;BME280;19125;52.360;9.974;2024-01-30T11:52:41;86659.56;;;-145.17;49.07
32759;BME280;19125;52.360;9.974;2024-01-30T11:55:09;86635.75;;;-145.17;49.23
32759;BME280;19125;52.360;9.974;2024-01-30T11:57:34;86711.16;;;-145.17;49.30
32759;BME280;19125;52.360;9.974;2024-01-30T12:00:02;86695.28;;;-145.17;49.28
32759;BME280;19125;52.360;9.974;2024-01-30T12:02:33;86671.47;;;-145.17;49.65
32759;BME280;19125;52.360;9.974;2024-01-30T12:05:04;86645.69;;;-145.17;49.29
32759;BME280;19125;52.360;9.974;2024-01-30T12:07:29;86639.72;;;-145.17;49.40
32759;BME280;19125;52.360;9.974;2024-01-30T12:09:54;86651.63;;;-145.17;49.48
32759;BME280;19125;52.360;9.974;2024-01-30T12:12:23;86635.75;;;-145.17;49.21
32759;BME280;19125;52.360;9.974;2024-01-30T12:14:49;86604.00;;;-145.17;49.34
32759;BME280;19125;52.360;9.974;2024-01-30T12:17:28;86611.94;;;-145.17;49.20
32759;BME280;19125;52.360;9.974;2024-01-30T12:22:42;86605.97;;;-145.17;48.81
32759;BME280;19125;52.360;9.974;2024-01-30T12:25:09;86574.22;;;-145.17;48.72
32759;BME280;19125;52.360;9.974;2024-01-30T12:27:35;86572.25;;;-145.17;48.33
32759;BME280;19125;52.360;9.974;2024-01-30T12:30:01;86536.53;;;-145.17;48.30
32759;BME280;19125;52.360;9.974;2024-01-30T12:32:27;86564.31;;;-145.17;48.25
32759;BME280;19125;52.360;9.974;2024-01-30T12:34:56;86570.25;;;-145.17;47.93
32759;BME280;19125;52.360;9.974;2024-01-30T12:37:22;86540.50;;;-145.17;47.82
32759;BME280;19125;52.360;9.974;2024-01-30T12:39:51;86540.50;;;-145.17;47.66